sensor_id;sensor_type;location;lat;lon;timestamp;temperature;humidity
62583;DHT22;48641;51.676;5.808;2022-08-23T00:01:22;24.40;51.00
62583;DHT22;48641;51.676;5.808;2022-08-23T00:03:48;24.40;51.00
62583;DHT22;48641;51.676;5.808;2022-08-23T00:06:15;24.40;50.90
62583;DHT22;48641;51.676;5.808;2022-08-23T00:08:41;24.40;50.90
62583;DHT22;48641;51.676;5.808;2022-08-23T00:11:33;24.40;50.90
62583;DHT22;48641;51.676;5.808;2022-08-23T00:14:12;24.40;50.80
62583;DHT22;48641;51.676;5.808;2022-08-23T00:16:38;24.40;50.90
62583;DHT22;48641;51.676;5.808;2022-08-23T00:19:06;24.30;50.90
62583;DHT22;48641;51.676;5.808;2022-08-23T00:21:33;24.30;51.20
62583;DHT22;48641;51.676;5.808;2022-08-23T00:23:59;24.20;51.10
62583;DHT22;48641;51.676;5.808;2022-08-23T00:26:25;24.30;51.10
62583;DHT22;48641;51.676;5.808;2022-08-23T00:28:51;24.20;51.00
62583;DHT22;48641;51.676;5.808;2022-08-23T00:31:18;24.20;51.00
62583;DHT22;48641;51.676;5.808;2022-08-23T00:33:44;24.20;51.00
62583;DHT22;48641;51.676;5.808;2022-08-23T00:36:10;24.20;51.10
62583;DHT22;48641;51.676;5.808;2022-08-23T00:38:35;24.30;51.00
62583;DHT22;48641;51.676;5.808;2022-08-23T00:41:02;24.30;51.00
62583;DHT22;48641;51.676;5.808;2022-08-23T00:43:31;24.30;50.90
62583;DHT22;48641;51.676;5.808;2022-08-23T00:49:25;24.30;50.80
62583;DHT22;48641;51.676;5.808;2022-08-23T00:52:17;24.20;50.90
62583;DHT22;48641;51.676;5.808;2022-08-23T00:54:44;24.20;50.90
62583;DHT22;48641;51.676;5.808;2022-08-23T00:57:13;24.20;51.00
62583;DHT22;48641;51.676;5.808;2022-08-23T00:59:40;24.20;51.00
62583;DHT22;48641;51.676;5.808;2022-08-23T01:02:06;24.20;51.00
62583;DHT22;48641;51.676;5.808;2022-08-23T01:04:38;24.20;51.00
62583;DHT22;48641;51.676;5.808;2022-08-23T01:07:27;24.20;51.00
62583;DHT22;48641;51.676;5.808;2022-08-23T01:09:59;24.20;50.90
62583;DHT22;48641;51.676;5.808;2022-08-23T01:12:37;24.20;51.10
62583;DHT22;48641;51.676;5.808;2022-08-23T01:15:10;24.20;50.90
62583;DHT22;48641;51.676;5.808;2022-08-23T01:17:47;24.20;50.90
62583;DHT22;48641;51.676;5.808;2022-08-23T01:20:17;24.20;50.90
62583;DHT22;48641;51.676;5.808;2022-08-23T01:25:22;24.20;50.90
62583;DHT22;48641;51.676;5.808;2022-08-23T01:27:49;24.10;50.90
62583;DHT22;48641;51.676;5.808;2022-08-23T01:30:18;24.10;50.80
62583;DHT22;48641;51.676;5.808;2022-08-23T01:32:56;24.10;50.80
62583;DHT22;48641;51.676;5.808;2022-08-23T01:35:34;24.10;50.80
62583;DHT22;48641;51.676;5.808;2022-08-23T01:38:01;24.10;50.80
62583;DHT22;48641;51.676;5.808;2022-08-23T01:40:27;24.10;50.90
62583;DHT22;48641;51.676;5.808;2022-08-23T01:42:52;24.10;51.00
62583;DHT22;48641;51.676;5.808;2022-08-23T01:45:18;24.10;51.00
62583;DHT22;48641;51.676;5.808;2022-08-23T01:47:44;24.10;51.00
62583;DHT22;48641;51.676;5.808;2022-08-23T01:50:11;24.10;51.00
62583;DHT22;48641;51.676;5.808;2022-08-23T01:52:38;24.10;50.90
62583;DHT22;48641;51.676;5.808;2022-08-23T01:55:04;24.10;50.90
62583;DHT22;48641;51.676;5.808;2022-08-23T01:57:30;24.10;50.90
62583;DHT22;48641;51.676;5.808;2022-08-23T01:59:57;24.00;50.80
62583;DHT22;48641;51.676;5.808;2022-08-23T02:02:23;24.00;50.90
62583;DHT22;48641;51.676;5.808;2022-08-23T02:04:49;24.00;50.90
62583;DHT22;48641;51.676;5.808;2022-08-23T02:07:14;24.00;50.90
62583;DHT22;48641;51.676;5.808;2022-08-23T02:09:40;24.00;50.90
62583;DHT22;48641;51.676;5.808;2022-08-23T02:12:06;24.00;51.00
62583;DHT22;48641;51.676;5.808;2022-08-23T02:14:31;24.00;50.90
62583;DHT22;48641;51.676;5.808;2022-08-23T02:16:57;23.90;50.90
62583;DHT22;48641;51.676;5.808;2022-08-23T02:19:23;24.00;50.90
62583;DHT22;48641;51.676;5.808;2022-08-23T02:21:50;24.00;51.00
62583;DHT22;48641;51.676;5.808;2022-08-23T02:24:19;24.00;51.00
62583;DHT22;48641;51.676;5.808;2022-08-23T02:26:47;24.00;50.90
62583;DHT22;48641;51.676;5.808;2022-08-23T02:29:16;23.90;50.90
62583;DHT22;48641;51.676;5.808;2022-08-23T02:31:43;23.90;50.90
62583;DHT22;48641;51.676;5.808;2022-08-23T02:34:10;24.00;50.90
62583;DHT22;48641;51.676;5.808;2022-08-23T02:36:36;23.90;50.90
62583;DHT22;48641;51.676;5.808;2022-08-23T02:39:04;23.90;50.80
62583;DHT22;48641;51.676;5.808;2022-08-23T02:41:30;23.90;50.90
62583;DHT22;48641;51.676;5.808;2022-08-23T02:43:56;23.90;50.90
62583;DHT22;48641;51.676;5.808;2022-08-23T02:46:22;23.90;50.90
62583;DHT22;48641;51.676;5.808;2022-08-23T02:48:48;23.90;50.90
62583;DHT22;48641;51.676;5.808;2022-08-23T02:51:14;23.90;50.90
62583;DHT22;48641;51.676;5.808;2022-08-23T02:53:41;23.90;50.90
62583;DHT22;48641;51.676;5.808;2022-08-23T02:56:08;23.90;50.90
62583;DHT22;48641;51.676;5.808;2022-08-23T02:58:33;23.90;50.90
62583;DHT22;48641;51.676;5.808;2022-08-23T03:00:59;23.90;50.90
62583;DHT22;48641;51.676;5.808;2022-08-23T03:03:25;23.80;50.80
62583;DHT22;48641;51.676;5.808;2022-08-23T03:05:51;23.90;50.90
62583;DHT22;48641;51.676;5.808;2022-08-23T03:08:17;23.80;50.70
62583;DHT22;48641;51.676;5.808;2022-08-23T03:10:45;23.90;50.80
62583;DHT22;48641;51.676;5.808;2022-08-23T03:13:11;23.80;50.80
62583;DHT22;48641;51.676;5.808;2022-08-23T03:15:38;23.80;50.80
62583;DHT22;48641;51.676;5.808;2022-08-23T03:18:04;23.80;50.80
62583;DHT22;48641;51.676;5.808;2022-08-23T03:20:29;23.80;50.90
62583;DHT22;48641;51.676;5.808;2022-08-23T03:22:55;23.80;50.80
62583;DHT22;48641;51.676;5.808;2022-08-23T03:25:21;23.80;50.80
62583;DHT22;48641;51.676;5.808;2022-08-23T03:27:47;23.70;50.80
62583;DHT22;48641;51.676;5.808;2022-08-23T03:30:12;23.80;50.90
62583;DHT22;48641;51.676;5.808;2022-08-23T03:32:38;23.80;50.90
62583;DHT22;48641;51.676;5.808;2022-08-23T03:35:04;23.80;51.00
62583;DHT22;48641;51.676;5.808;2022-08-23T03:37:31;23.70;50.80
62583;DHT22;48641;51.676;5.808;2022-08-23T03:39:56;23.80;50.90
62583;DHT22;48641;51.676;5.808;2022-08-23T03:42:22;23.70;50.90
62583;DHT22;48641;51.676;5.808;2022-08-23T03:44:48;23.80;50.80
62583;DHT22;48641;51.676;5.808;2022-08-23T03:47:13;23.70;50.80
62583;DHT22;48641;51.676;5.808;2022-08-23T03:49:39;23.70;50.90
62583;DHT22;48641;51.676;5.808;2022-08-23T03:52:05;23.70;50.80
62583;DHT22;48641;51.676;5.808;2022-08-23T03:54:33;23.70;50.80
62583;DHT22;48641;51.676;5.808;2022-08-23T03:57:04;23.70;50.80
62583;DHT22;48641;51.676;5.808;2022-08-23T03:59:31;23.70;50.80
62583;DHT22;48641;51.676;5.808;2022-08-23T04:01:59;23.70;50.90
62583;DHT22;48641;51.676;5.808;2022-08-23T04:04:25;23.60;50.90
62583;DHT22;48641;51.676;5.808;2022-08-23T04:06:50;23.60;50.90
62583;DHT22;48641;51.676;5.808;2022-08-23T04:09:16;23.70;50.90
62583;DHT22;48641;51.676;5.808;2022-08-23T04:11:42;23.60;50.90
62583;DHT22;48641;51.676;5.808;2022-08-23T04:14:08;23.60;50.90
62583;DHT22;48641;51.676;5.808;2022-08-23T04:16:34;23.70;50.90
62583;DHT22;48641;51.676;5.808;2022-08-23T04:19:07;23.60;50.80
62583;DHT22;48641;51.676;5.808;2022-08-23T04:21:35;23.60;50.80
62583;DHT22;48641;51.676;5.808;2022-08-23T04:24:01;23.60;50.80
62583;DHT22;48641;51.676;5.808;2022-08-23T04:26:26;23.60;50.80
62583;DHT22;48641;51.676;5.808;2022-08-23T04:28:52;23.60;50.90
62583;DHT22;48641;51.676;5.808;2022-08-23T04:31:19;23.60;50.90
62583;DHT22;48641;51.676;5.808;2022-08-23T04:33:45;23.60;50.90
62583;DHT22;48641;51.676;5.808;2022-08-23T04:36:11;23.50;50.90
62583;DHT22;48641;51.676;5.808;2022-08-23T04:38:37;23.60;51.00
62583;DHT22;48641;51.676;5.808;2022-08-23T04:41:02;23.60;51.00
62583;DHT22;48641;51.676;5.808;2022-08-23T04:43:47;23.50;51.00
62583;DHT22;48641;51.676;5.808;2022-08-23T04:46:14;23.50;51.00
62583;DHT22;48641;51.676;5.808;2022-08-23T04:48:43;23.50;51.10
62583;DHT22;48641;51.676;5.808;2022-08-23T04:51:10;23.50;51.10
62583;DHT22;48641;51.676;5.808;2022-08-23T04:53:36;23.50;51.10
62583;DHT22;48641;51.676;5.808;2022-08-23T04:56:02;23.50;51.00
62583;DHT22;48641;51.676;5.808;2022-08-23T04:58:29;23.50;51.00
62583;DHT22;48641;51.676;5.808;2022-08-23T05:00:57;23.50;51.00
62583;DHT22;48641;51.676;5.808;2022-08-23T05:03:23;23.50;51.10
62583;DHT22;48641;51.676;5.808;2022-08-23T05:05:48;23.50;51.10
62583;DHT22;48641;51.676;5.808;2022-08-23T05:08:14;23.50;51.10
62583;DHT22;48641;51.676;5.808;2022-08-23T05:10:40;23.50;51.20
62583;DHT22;48641;51.676;5.808;2022-08-23T05:13:05;23.50;51.20
62583;DHT22;48641;51.676;5.808;2022-08-23T05:15:31;23.50;52.30
62583;DHT22;48641;51.676;5.808;2022-08-23T05:17:57;23.50;51.20
62583;DHT22;48641;51.676;5.808;2022-08-23T05:20:22;23.50;51.20
62583;DHT22;48641;51.676;5.808;2022-08-23T05:22:48;23.50;51.20
62583;DHT22;48641;51.676;5.808;2022-08-23T05:25:14;23.50;51.30
62583;DHT22;48641;51.676;5.808;2022-08-23T05:27:39;23.50;51.30
62583;DHT22;48641;51.676;5.808;2022-08-23T05:30:06;23.50;51.30
62583;DHT22;48641;51.676;5.808;2022-08-23T05:32:32;23.50;51.30
62583;DHT22;48641;51.676;5.808;2022-08-23T05:34:58;23.50;51.30
62583;DHT22;48641;51.676;5.808;2022-08-23T05:37:23;23.50;51.30
62583;DHT22;48641;51.676;5.808;2022-08-23T05:39:49;23.50;51.30
62583;DHT22;48641;51.676;5.808;2022-08-23T05:42:15;23.40;51.30
62583;DHT22;48641;51.676;5.808;2022-08-23T05:44:41;23.50;51.40
62583;DHT22;48641;51.676;5.808;2022-08-23T05:47:10;23.50;51.50
62583;DHT22;48641;51.676;5.808;2022-08-23T05:49:36;23.40;51.40
62583;DHT22;48641;51.676;5.808;2022-08-23T05:52:03;23.40;51.40
62583;DHT22;48641;51.676;5.808;2022-08-23T05:54:29;23.40;51.60
62583;DHT22;48641;51.676;5.808;2022-08-23T05:56:55;23.40;51.60
62583;DHT22;48641;51.676;5.808;2022-08-23T05:59:20;23.40;51.70
62583;DHT22;48641;51.676;5.808;2022-08-23T06:01:47;23.40;51.70
62583;DHT22;48641;51.676;5.808;2022-08-23T06:04:12;23.40;51.80
62583;DHT22;48641;51.676;5.808;2022-08-23T06:06:39;23.50;51.90
62583;DHT22;48641;51.676;5.808;2022-08-23T06:09:08;23.50;51.90
62583;DHT22;48641;51.676;5.808;2022-08-23T06:11:34;23.40;51.80
62583;DHT22;48641;51.676;5.808;2022-08-23T06:14:02;23.40;51.80
62583;DHT22;48641;51.676;5.808;2022-08-23T06:16:34;23.40;51.80
62583;DHT22;48641;51.676;5.808;2022-08-23T06:19:00;23.50;51.90
62583;DHT22;48641;51.676;5.808;2022-08-23T06:21:27;23.40;51.80
62583;DHT22;48641;51.676;5.808;2022-08-23T06:23:53;23.40;51.80
62583;DHT22;48641;51.676;5.808;2022-08-23T06:26:23;23.40;51.80
62583;DHT22;48641;51.676;5.808;2022-08-23T06:28:52;23.40;51.80
62583;DHT22;48641;51.676;5.808;2022-08-23T06:31:19;23.40;51.80
62583;DHT22;48641;51.676;5.808;2022-08-23T06:34:06;23.40;51.80
62583;DHT22;48641;51.676;5.808;2022-08-23T06:36:32;23.30;52.40
62583;DHT22;48641;51.676;5.808;2022-08-23T06:38:58;23.40;52.60
62583;DHT22;48641;51.676;5.808;2022-08-23T06:41:24;23.40;52.60
62583;DHT22;48641;51.676;5.808;2022-08-23T06:43:50;23.40;53.50
62583;DHT22;48641;51.676;5.808;2022-08-23T06:46:18;23.40;52.40
62583;DHT22;48641;51.676;5.808;2022-08-23T06:48:44;23.40;52.30
62583;DHT22;48641;51.676;5.808;2022-08-23T06:51:32;23.40;52.30
62583;DHT22;48641;51.676;5.808;2022-08-23T06:54:00;23.40;52.40
62583;DHT22;48641;51.676;5.808;2022-08-23T06:56:27;23.40;52.40
62583;DHT22;48641;51.676;5.808;2022-08-23T06:58:53;23.40;52.40
62583;DHT22;48641;51.676;5.808;2022-08-23T07:04:07;23.40;53.30
62583;DHT22;48641;51.676;5.808;2022-08-23T07:06:33;23.40;52.40
62583;DHT22;48641;51.676;5.808;2022-08-23T07:08:59;23.40;52.50
62583;DHT22;48641;51.676;5.808;2022-08-23T07:11:26;23.40;52.50
62583;DHT22;48641;51.676;5.808;2022-08-23T07:13:53;23.40;52.60
62583;DHT22;48641;51.676;5.808;2022-08-23T07:16:20;23.50;52.70
62583;DHT22;48641;51.676;5.808;2022-08-23T07:18:46;23.50;52.70
62583;DHT22;48641;51.676;5.808;2022-08-23T07:21:14;23.50;52.70
62583;DHT22;48641;51.676;5.808;2022-08-23T07:23:40;23.50;52.70
62583;DHT22;48641;51.676;5.808;2022-08-23T07:26:08;23.50;52.70
62583;DHT22;48641;51.676;5.808;2022-08-23T07:28:35;23.50;52.60
62583;DHT22;48641;51.676;5.808;2022-08-23T07:33:45;23.50;52.60
62583;DHT22;48641;51.676;5.808;2022-08-23T07:36:14;23.50;52.70
62583;DHT22;48641;51.676;5.808;2022-08-23T07:38:41;23.50;52.70
62583;DHT22;48641;51.676;5.808;2022-08-23T07:41:07;23.50;52.70
62583;DHT22;48641;51.676;5.808;2022-08-23T07:43:33;23.50;52.70
62583;DHT22;48641;51.676;5.808;2022-08-23T07:45:59;23.50;52.70
62583;DHT22;48641;51.676;5.808;2022-08-23T07:48:25;23.50;52.60
62583;DHT22;48641;51.676;5.808;2022-08-23T07:50:55;23.50;52.60
62583;DHT22;48641;51.676;5.808;2022-08-23T07:53:22;23.60;52.70
62583;DHT22;48641;51.676;5.808;2022-08-23T07:55:48;23.60;52.80
62583;DHT22;48641;51.676;5.808;2022-08-23T07:58:13;23.60;52.80
62583;DHT22;48641;51.676;5.808;2022-08-23T08:00:39;23.60;52.90
62583;DHT22;48641;51.676;5.808;2022-08-23T08:03:05;23.60;52.90
62583;DHT22;48641;51.676;5.808;2022-08-23T08:05:31;23.60;52.90
62583;DHT22;48641;51.676;5.808;2022-08-23T08:07:57;23.60;52.90
62583;DHT22;48641;51.676;5.808;2022-08-23T08:10:23;23.60;53.00
62583;DHT22;48641;51.676;5.808;2022-08-23T08:12:49;23.60;53.00
62583;DHT22;48641;51.676;5.808;2022-08-23T08:15:15;23.60;53.10
62583;DHT22;48641;51.676;5.808;2022-08-23T08:17:41;23.60;53.00
62583;DHT22;48641;51.676;5.808;2022-08-23T08:20:07;23.60;53.00
62583;DHT22;48641;51.676;5.808;2022-08-23T08:22:33;23.60;53.10
62583;DHT22;48641;51.676;5.808;2022-08-23T08:24:59;23.60;53.10
62583;DHT22;48641;51.676;5.808;2022-08-23T08:27:24;23.70;53.10
62583;DHT22;48641;51.676;5.808;2022-08-23T08:29:50;23.70;53.20
62583;DHT22;48641;51.676;5.808;2022-08-23T08:32:15;23.70;53.20
62583;DHT22;48641;51.676;5.808;2022-08-23T08:34:41;23.70;53.20
62583;DHT22;48641;51.676;5.808;2022-08-23T08:37:07;23.70;53.20
62583;DHT22;48641;51.676;5.808;2022-08-23T08:39:33;23.80;53.20
62583;DHT22;48641;51.676;5.808;2022-08-23T08:44:52;23.80;53.40
62583;DHT22;48641;51.676;5.808;2022-08-23T08:50:01;23.80;53.40
62583;DHT22;48641;51.676;5.808;2022-08-23T08:52:32;23.80;53.40
62583;DHT22;48641;51.676;5.808;2022-08-23T08:55:08;23.80;53.40
62583;DHT22;48641;51.676;5.808;2022-08-23T08:57:40;23.80;53.40
62583;DHT22;48641;51.676;5.808;2022-08-23T09:02:38;23.90;53.50
62583;DHT22;48641;51.676;5.808;2022-08-23T09:05:11;23.80;53.60
62583;DHT22;48641;51.676;5.808;2022-08-23T09:10:57;23.90;53.60
62583;DHT22;48641;51.676;5.808;2022-08-23T09:13:55;23.90;53.60
62583;DHT22;48641;51.676;5.808;2022-08-23T09:16:51;23.90;53.70
62583;DHT22;48641;51.676;5.808;2022-08-23T09:19:19;23.90;53.70
62583;DHT22;48641;51.676;5.808;2022-08-23T09:21:56;23.90;53.90
62583;DHT22;48641;51.676;5.808;2022-08-23T09:24:22;23.90;54.00
62583;DHT22;48641;51.676;5.808;2022-08-23T09:26:48;23.90;54.00
62583;DHT22;48641;51.676;5.808;2022-08-23T09:29:28;23.90;54.10
62583;DHT22;48641;51.676;5.808;2022-08-23T09:31:57;23.90;54.10
62583;DHT22;48641;51.676;5.808;2022-08-23T09:39:35;23.90;54.20
62583;DHT22;48641;51.676;5.808;2022-08-23T09:42:01;23.90;54.30
62583;DHT22;48641;51.676;5.808;2022-08-23T09:44:35;23.90;54.30
62583;DHT22;48641;51.676;5.808;2022-08-23T09:47:12;24.00;54.40
62583;DHT22;48641;51.676;5.808;2022-08-23T09:49:40;24.10;54.30
62583;DHT22;48641;51.676;5.808;2022-08-23T09:52:26;24.10;54.30
62583;DHT22;48641;51.676;5.808;2022-08-23T09:54:59;24.10;54.30
62583;DHT22;48641;51.676;5.808;2022-08-23T09:57:29;24.10;54.30
62583;DHT22;48641;51.676;5.808;2022-08-23T10:00:00;24.10;54.40
62583;DHT22;48641;51.676;5.808;2022-08-23T10:02:30;24.20;54.40
62583;DHT22;48641;51.676;5.808;2022-08-23T10:05:05;24.20;54.20
62583;DHT22;48641;51.676;5.808;2022-08-23T10:07:36;24.20;54.10
62583;DHT22;48641;51.676;5.808;2022-08-23T10:12:52;24.20;53.90
62583;DHT22;48641;51.676;5.808;2022-08-23T10:15:21;24.20;53.90
62583;DHT22;48641;51.676;5.808;2022-08-23T10:18:00;24.20;53.90
62583;DHT22;48641;51.676;5.808;2022-08-23T10:20:46;24.20;53.70
62583;DHT22;48641;51.676;5.808;2022-08-23T10:23:20;24.30;53.60
62583;DHT22;48641;51.676;5.808;2022-08-23T10:25:55;24.30;53.70
62583;DHT22;48641;51.676;5.808;2022-08-23T10:37:19;24.40;53.70
62583;DHT22;48641;51.676;5.808;2022-08-23T10:40:44;24.40;53.70
62583;DHT22;48641;51.676;5.808;2022-08-23T10:45:52;24.50;53.40
62583;DHT22;48641;51.676;5.808;2022-08-23T10:48:29;24.40;53.40
62583;DHT22;48641;51.676;5.808;2022-08-23T10:51:48;24.50;53.40
62583;DHT22;48641;51.676;5.808;2022-08-23T10:54:08;24.50;53.40
62583;DHT22;48641;51.676;5.808;2022-08-23T10:56:35;24.50;53.30
62583;DHT22;48641;51.676;5.808;2022-08-23T10:59:30;24.50;53.20
62583;DHT22;48641;51.676;5.808;2022-08-23T11:04:48;24.60;53.10
62583;DHT22;48641;51.676;5.808;2022-08-23T11:07:31;24.60;53.10
62583;DHT22;48641;51.676;5.808;2022-08-23T11:12:32;24.70;53.00
62583;DHT22;48641;51.676;5.808;2022-08-23T11:15:13;24.70;53.00
62583;DHT22;48641;51.676;5.808;2022-08-23T11:25:59;24.80;52.60
62583;DHT22;48641;51.676;5.808;2022-08-23T11:33:34;24.90;52.70
62583;DHT22;48641;51.676;5.808;2022-08-23T11:36:18;24.90;53.70
62583;DHT22;48641;51.676;5.808;2022-08-23T11:41:23;24.90;52.70
62583;DHT22;48641;51.676;5.808;2022-08-23T11:46:55;25.00;52.70
62583;DHT22;48641;51.676;5.808;2022-08-23T11:54:46;25.10;52.80
62583;DHT22;48641;51.676;5.808;2022-08-23T11:57:43;25.10;52.60
62583;DHT22;48641;51.676;5.808;2022-08-23T12:00:50;25.20;52.50
62583;DHT22;48641;51.676;5.808;2022-08-23T12:03:26;25.20;53.50
62583;DHT22;48641;51.676;5.808;2022-08-23T12:06:10;25.20;52.50
62583;DHT22;48641;51.676;5.808;2022-08-23T12:11:19;25.30;52.50
62583;DHT22;48641;51.676;5.808;2022-08-23T12:13:57;25.30;52.40
62583;DHT22;48641;51.676;5.808;2022-08-23T12:21:31;25.40;52.10
62583;DHT22;48641;51.676;5.808;2022-08-23T12:26:58;25.40;52.10
62583;DHT22;48641;51.676;5.808;2022-08-23T12:35:10;25.50;52.10
62583;DHT22;48641;51.676;5.808;2022-08-23T12:37:53;25.50;52.10
62583;DHT22;48641;51.676;5.808;2022-08-23T12:40:27;25.50;52.00
62583;DHT22;48641;51.676;5.808;2022-08-23T12:43:05;25.50;52.00
62583;DHT22;48641;51.676;5.808;2022-08-23T12:45:39;25.50;52.00
62583;DHT22;48641;51.676;5.808;2022-08-23T12:48:07;25.50;51.80
62583;DHT22;48641;51.676;5.808;2022-08-23T12:50:40;25.60;51.90
62583;DHT22;48641;51.676;5.808;2022-08-23T12:53:10;25.60;51.80
62583;DHT22;48641;51.676;5.808;2022-08-23T12:55:40;25.50;51.80
62583;DHT22;48641;51.676;5.808;2022-08-23T12:58:08;25.60;51.80
62583;DHT22;48641;51.676;5.808;2022-08-23T13:00:41;25.60;51.60
62583;DHT22;48641;51.676;5.808;2022-08-23T13:03:24;25.60;51.50
62583;DHT22;48641;51.676;5.808;2022-08-23T13:05:58;25.60;51.70
62583;DHT22;48641;51.676;5.808;2022-08-23T13:08:37;25.60;51.70
62583;DHT22;48641;51.676;5.808;2022-08-23T13:11:04;25.60;51.60
62583;DHT22;48641;51.676;5.808;2022-08-23T13:13:30;25.70;51.70
62583;DHT22;48641;51.676;5.808;2022-08-23T13:16:01;25.70;51.60
62583;DHT22;48641;51.676;5.808;2022-08-23T13:18:29;25.70;51.70
62583;DHT22;48641;51.676;5.808;2022-08-23T13:23:53;25.80;51.40
62583;DHT22;48641;51.676;5.808;2022-08-23T13:26:41;25.80;51.40
62583;DHT22;48641;51.676;5.808;2022-08-23T13:29:20;25.80;51.30
62583;DHT22;48641;51.676;5.808;2022-08-23T13:32:00;25.80;51.30
62583;DHT22;48641;51.676;5.808;2022-08-23T13:34:38;25.90;51.40
62583;DHT22;48641;51.676;5.808;2022-08-23T13:37:10;25.90;51.30
62583;DHT22;48641;51.676;5.808;2022-08-23T13:39:44;25.80;51.30
62583;DHT22;48641;51.676;5.808;2022-08-23T13:42:10;25.80;51.50
62583;DHT22;48641;51.676;5.808;2022-08-23T13:44:36;25.80;51.40
62583;DHT22;48641;51.676;5.808;2022-08-23T13:47:18;25.80;51.30
62583;DHT22;48641;51.676;5.808;2022-08-23T13:49:45;25.90;51.40
62583;DHT22;48641;51.676;5.808;2022-08-23T13:52:11;25.90;51.40
62583;DHT22;48641;51.676;5.808;2022-08-23T13:54:37;25.90;51.20
62583;DHT22;48641;51.676;5.808;2022-08-23T13:57:07;25.90;51.10
62583;DHT22;48641;51.676;5.808;2022-08-23T13:59:39;25.90;51.10
62583;DHT22;48641;51.676;5.808;2022-08-23T14:02:09;25.90;51.20
62583;DHT22;48641;51.676;5.808;2022-08-23T14:04:38;26.00;51.10
62583;DHT22;48641;51.676;5.808;2022-08-23T14:07:05;26.00;51.10
62583;DHT22;48641;51.676;5.808;2022-08-23T14:09:31;26.00;51.00
62583;DHT22;48641;51.676;5.808;2022-08-23T14:12:01;26.00;50.90
62583;DHT22;48641;51.676;5.808;2022-08-23T14:14:30;26.10;50.90
62583;DHT22;48641;51.676;5.808;2022-08-23T14:16:56;26.10;50.90
62583;DHT22;48641;51.676;5.808;2022-08-23T14:19:22;26.10;50.80
62583;DHT22;48641;51.676;5.808;2022-08-23T14:21:48;26.10;50.60
62583;DHT22;48641;51.676;5.808;2022-08-23T14:24:13;26.10;50.60
62583;DHT22;48641;51.676;5.808;2022-08-23T14:26:39;26.10;50.60
62583;DHT22;48641;51.676;5.808;2022-08-23T14:29:05;26.10;50.60
62583;DHT22;48641;51.676;5.808;2022-08-23T14:31:31;26.20;50.70
62583;DHT22;48641;51.676;5.808;2022-08-23T14:33:56;26.20;50.70
62583;DHT22;48641;51.676;5.808;2022-08-23T14:36:22;26.20;50.70
62583;DHT22;48641;51.676;5.808;2022-08-23T14:38:47;26.20;50.70
62583;DHT22;48641;51.676;5.808;2022-08-23T14:41:17;26.20;50.50
62583;DHT22;48641;51.676;5.808;2022-08-23T14:43:43;26.20;50.50
62583;DHT22;48641;51.676;5.808;2022-08-23T14:46:09;26.20;50.30
62583;DHT22;48641;51.676;5.808;2022-08-23T14:48:34;26.20;50.30
62583;DHT22;48641;51.676;5.808;2022-08-23T14:51:01;26.20;50.20
62583;DHT22;48641;51.676;5.808;2022-08-23T14:53:29;26.30;50.50
62583;DHT22;48641;51.676;5.808;2022-08-23T14:55:56;26.30;50.40
62583;DHT22;48641;51.676;5.808;2022-08-23T14:58:22;26.30;51.50
62583;DHT22;48641;51.676;5.808;2022-08-23T15:00:49;26.30;50.50
62583;DHT22;48641;51.676;5.808;2022-08-23T15:03:23;26.30;50.40
62583;DHT22;48641;51.676;5.808;2022-08-23T15:05:48;26.30;50.50
62583;DHT22;48641;51.676;5.808;2022-08-23T15:08:14;26.30;50.40
62583;DHT22;48641;51.676;5.808;2022-08-23T15:10:40;26.30;50.50
62583;DHT22;48641;51.676;5.808;2022-08-23T15:13:06;26.30;50.30
62583;DHT22;48641;51.676;5.808;2022-08-23T15:15:32;26.30;50.30
62583;DHT22;48641;51.676;5.808;2022-08-23T15:18:00;26.30;50.30
62583;DHT22;48641;51.676;5.808;2022-08-23T15:20:32;26.40;50.30
62583;DHT22;48641;51.676;5.808;2022-08-23T15:22:58;26.30;50.20
62583;DHT22;48641;51.676;5.808;2022-08-23T15:25:27;26.30;50.30
62583;DHT22;48641;51.676;5.808;2022-08-23T15:27:53;26.30;50.30
62583;DHT22;48641;51.676;5.808;2022-08-23T15:30:20;26.30;50.30
62583;DHT22;48641;51.676;5.808;2022-08-23T15:32:46;26.20;50.40
62583;DHT22;48641;51.676;5.808;2022-08-23T15:35:13;26.20;50.40
62583;DHT22;48641;51.676;5.808;2022-08-23T15:37:39;26.30;50.40
62583;DHT22;48641;51.676;5.808;2022-08-23T15:40:06;26.30;50.40
62583;DHT22;48641;51.676;5.808;2022-08-23T15:42:33;26.30;50.30
62583;DHT22;48641;51.676;5.808;2022-08-23T15:44:58;26.30;50.30
62583;DHT22;48641;51.676;5.808;2022-08-23T15:47:30;26.30;50.20
62583;DHT22;48641;51.676;5.808;2022-08-23T15:49:58;26.30;50.20
62583;DHT22;48641;51.676;5.808;2022-08-23T15:52:24;26.30;50.20
62583;DHT22;48641;51.676;5.808;2022-08-23T15:54:50;26.30;50.10
62583;DHT22;48641;51.676;5.808;2022-08-23T15:57:19;26.30;50.10
62583;DHT22;48641;51.676;5.808;2022-08-23T15:59:45;26.30;50.00
62583;DHT22;48641;51.676;5.808;2022-08-23T16:02:10;26.30;50.10
62583;DHT22;48641;51.676;5.808;2022-08-23T16:04:36;26.30;50.20
62583;DHT22;48641;51.676;5.808;2022-08-23T16:07:07;26.30;50.20
62583;DHT22;48641;51.676;5.808;2022-08-23T16:09:33;26.30;50.20
62583;DHT22;48641;51.676;5.808;2022-08-23T16:12:00;26.30;50.20
62583;DHT22;48641;51.676;5.808;2022-08-23T16:14:26;26.30;50.20
62583;DHT22;48641;51.676;5.808;2022-08-23T16:16:51;26.30;50.20
62583;DHT22;48641;51.676;5.808;2022-08-23T16:19:17;26.30;50.10
62583;DHT22;48641;51.676;5.808;2022-08-23T16:21:43;26.30;50.20
62583;DHT22;48641;51.676;5.808;2022-08-23T16:24:09;26.40;50.10
62583;DHT22;48641;51.676;5.808;2022-08-23T16:26:36;26.30;50.00
62583;DHT22;48641;51.676;5.808;2022-08-23T16:29:06;26.30;50.00
62583;DHT22;48641;51.676;5.808;2022-08-23T16:31:33;26.40;50.10
62583;DHT22;48641;51.676;5.808;2022-08-23T16:34:00;26.30;51.20
62583;DHT22;48641;51.676;5.808;2022-08-23T16:36:26;26.40;50.20
62583;DHT22;48641;51.676;5.808;2022-08-23T16:38:52;26.30;50.10
62583;DHT22;48641;51.676;5.808;2022-08-23T16:41:20;26.30;50.10
62583;DHT22;48641;51.676;5.808;2022-08-23T16:43:46;26.30;50.00
62583;DHT22;48641;51.676;5.808;2022-08-23T16:46:12;26.30;50.10
62583;DHT22;48641;51.676;5.808;2022-08-23T16:48:40;26.40;50.10
62583;DHT22;48641;51.676;5.808;2022-08-23T16:51:06;26.30;50.00
62583;DHT22;48641;51.676;5.808;2022-08-23T16:53:31;26.30;50.10
62583;DHT22;48641;51.676;5.808;2022-08-23T16:55:57;26.30;50.00
62583;DHT22;48641;51.676;5.808;2022-08-23T16:58:23;26.30;49.90
62583;DHT22;48641;51.676;5.808;2022-08-23T17:00:48;26.30;50.00
62583;DHT22;48641;51.676;5.808;2022-08-23T17:03:15;26.30;49.90
62583;DHT22;48641;51.676;5.808;2022-08-23T17:05:41;26.30;50.00
62583;DHT22;48641;51.676;5.808;2022-08-23T17:08:07;26.30;49.80
62583;DHT22;48641;51.676;5.808;2022-08-23T17:10:32;26.30;49.80
62583;DHT22;48641;51.676;5.808;2022-08-23T17:12:59;26.30;49.90